Time;durP1;ratioP1;P1;durP2;ratioP2;P2;SDS_P1;SDS_P2;PMS_P1;PMS_P2;Temp;Humidity;BMP_temperature;BMP_pressure;BME280_temperature;BME280_humidity;BME280_pressure;Samples;Min_cycle;Max_cycle;Signal;HPM_P1;HPM_P2
2022/10/30 00:02:31;;;;;;;1.98;0.57;;;;;;;15.36;100.00;101690.94;10584866;28;20050;-75
2022/10/30 00:07:33;;;;;;;0.45;0.30;;;;;;;15.15;100.00;101691.41;10585421;28;20070;-76
2022/10/30 00:12:34;;;;;;;2.63;0.55;;;;;;;15.11;100.00;101690.47;10584203;28;20061;-76
2022/10/30 00:17:36;;;;;;;0.93;0.70;;;;;;;15.00;100.00;101689.41;10584073;28;20225;-76
2022/10/30 00:22:37;;;;;;;2.95;0.93;;;;;;;14.99;100.00;101690.22;10583790;28;20119;-75
2022/10/30 00:27:39;;;;;;;0.98;0.65;;;;;;;14.45;100.00;101708.06;10583466;28;20497;-75
2022/10/30 00:32:41;;;;;;;7.72;2.67;;;;;;;14.61;100.00;101709.28;10565348;28;20044;-76
2022/10/30 00:37:43;;;;;;;0.60;0.35;;;;;;;14.47;100.00;101705.50;10616681;27;20487;-77
2022/10/30 00:43:01;;;;;;;2.33;1.52;;;;;;;14.44;100.00;101734.84;10625901;27;20035;-75
2022/10/30 00:48:03;;;;;;;2.03;1.55;;;;;;;14.51;100.00;101739.31;10625377;27;20035;-75
2022/10/30 00:53:10;;;;;;;0.60;0.60;;;;;;;14.38;100.00;101737.28;10606836;27;20043;-75
2022/10/30 00:58:15;;;;;;;4.25;0.90;;;;;;;14.27;100.00;101734.44;10606741;27;20438;-76
2022/10/30 01:03:36;;;;;;;1.88;0.98;;;;;;;14.13;100.00;101741.88;10592333;27;20043;-76
2022/10/30 01:08:38;;;;;;;1.10;0.40;;;;;;;14.16;100.00;101757.50;10606449;27;20092;-76
2022/10/30 01:13:43;;;;;;;0.13;0.13;;;;;;;14.27;100.00;101758.63;10607361;27;20039;-76
2022/10/30 01:18:58;;;;;;;0.20;0.20;;;;;;;14.32;100.00;101770.84;10605493;28;20166;-75
2022/10/30 01:24:40;;;;;;;0.77;0.60;;;;;;;14.33;100.00;101770.00;10624706;28;20031;-76
2022/10/30 01:29:44;;;;;;;4.95;1.20;;;;;;;14.38;100.00;101778.75;10605986;28;20043;-75
2022/10/30 01:35:20;;;;;;;1.52;0.57;;;;;;;14.35;100.00;101778.69;10606667;28;20399;-75
2022/10/30 01:40:22;;;;;;;0.95;0.70;;;;;;;14.46;100.00;101761.69;10605984;28;20043;-75
2022/10/30 01:46:08;;;;;;;0.20;0.20;;;;;;;14.47;100.00;101763.44;10624114;28;20474;-76
2022/10/30 01:51:29;;;;;;;1.38;1.00;;;;;;;14.52;100.00;101760.97;10589699;28;20047;-76
2022/10/30 01:56:56;;;;;;;0.35;0.25;;;;;;;14.21;100.00;101766.25;10605358;28;20398;-75
2022/10/30 02:02:29;;;;;;;3.10;0.82;;;;;;;14.23;100.00;101768.88;10597153;28;20028;-76
2022/10/30 02:07:49;;;;;;;1.13;0.77;;;;;;;14.15;100.00;101784.25;10562830;28;20036;-75
2022/10/30 02:13:11;;;;;;;1.45;0.90;;;;;;;13.28;100.00;101800.03;10563085;28;20043;-77
2022/10/30 02:18:13;;;;;;;1.17;0.22;;;;;;;13.12;100.00;101875.44;10563018;28;20453;-76
2022/10/30 02:23:17;;;;;;;0.85;0.57;;;;;;;13.12;100.00;101881.47;10574288;28;20047;-76
2022/10/30 02:28:19;;;;;;;0.73;0.38;;;;;;;13.19;100.00;101887.72;10627613;27;20035;-76
2022/10/30 02:33:22;;;;;;;0.30;0.30;;;;;;;13.07;100.00;101887.34;10631046;27;20047;-76
2022/10/30 02:38:23;;;;;;;1.13;0.57;;;;;;;13.32;100.00;101899.34;10630678;27;20076;-77
2022/10/30 02:43:25;;;;;;;0.45;0.40;;;;;;;13.42;100.00;101879.81;10612819;27;20057;-77
2022/10/30 02:48:29;;;;;;;0.17;0.10;;;;;;;12.81;100.00;101895.16;10634038;27;20386;-76
2022/10/30 02:53:47;;;;;;;0.55;0.40;;;;;;;12.65;100.00;101920.50;10643244;27;20386;-76
2022/10/30 02:58:49;;;;;;;1.58;0.60;;;;;;;12.84;100.00;101928.88;10591836;28;20044;-76
2022/10/30 03:04:09;;;;;;;0.57;0.50;;;;;;;12.74;100.00;101934.56;10592001;28;20040;-76
2022/10/30 03:09:10;;;;;;;2.55;0.47;;;;;;;12.86;100.00;101934.97;10614062;27;20039;-76
2022/10/30 03:14:29;;;;;;;1.52;0.75;;;;;;;12.83;100.00;101940.03;10627547;27;20031;-75
2022/10/30 03:19:50;;;;;;;1.05;0.65;;;;;;;12.93;100.00;101931.75;10568727;28;20031;-75
2022/10/30 03:24:51;;;;;;;0.32;0.25;;;;;;;12.76;100.00;101933.78;10568249;28;20406;-75
2022/10/30 03:30:11;;;;;;;1.23;0.85;;;;;;;12.87;100.00;101921.22;10570759;28;20046;-75
2022/10/30 03:35:13;;;;;;;0.57;0.40;;;;;;;12.78;100.00;101939.88;10567676;28;20494;-76
2022/10/30 03:40:14;;;;;;;0.30;0.30;;;;;;;12.58;100.00;101935.75;10567134;28;20040;-76
2022/10/30 03:45:34;;;;;;;0.82;0.45;;;;;;;12.82;100.00;101935.69;10567130;28;20060;-75
2022/10/30 03:50:55;;;;;;;0.25;0.25;;;;;;;12.77;100.00;101945.03;10567173;28;20047;-76
2022/10/30 03:55:59;;;;;;;0.65;0.45;;;;;;;12.72;100.00;101941.38;10566793;28;20048;-76
2022/10/30 04:01:08;;;;;;;0.75;0.45;;;;;;;12.56;100.00;101947.75;10578037;27;20099;-76
2022/10/30 04:06:13;;;;;;;1.30;0.55;;;;;;;12.42;100.00;101947.25;10608627;27;20053;-76
2022/10/30 04:11:39;;;;;;;0.93;0.50;;;;;;;12.42;100.00;101957.59;10608563;27;20049;-76
2022/10/30 04:16:41;;;;;;;0.55;0.32;;;;;;;12.13;100.00;101957.44;10608180;27;20050;-76
2022/10/30 04:21:45;;;;;;;0.93;0.60;;;;;;;11.74;100.00;101967.19;10607963;27;20043;-75
2022/10/30 04:27:04;;;;;;;1.13;0.65;;;;;;;12.25;100.00;101986.28;10608415;27;20035;-76
2022/10/30 04:32:08;;;;;;;0.55;0.30;;;;;;;11.94;100.00;101995.47;10607601;27;20047;-76
2022/10/30 04:37:10;;;;;;;0.32;0.32;;;;;;;11.94;100.00;101979.97;10608154;27;20039;-76
2022/10/30 04:42:11;;;;;;;0.98;0.57;;;;;;;11.89;100.00;101996.97;10607228;27;20088;-76
2022/10/30 04:47:16;;;;;;;0.57;0.47;;;;;;;11.79;100.00;101994.88;10607095;27;20055;-76
2022/10/30 04:52:17;;;;;;;1.45;0.98;;;;;;;11.55;100.00;101990.53;10607115;27;20096;-76
2022/10/30 04:57:19;;;;;;;1.40;0.95;;;;;;;11.22;100.00;102007.31;10625235;27;20035;-76
2022/10/30 05:02:21;;;;;;;0.38;0.32;;;;;;;11.29;100.00;102021.31;10606632;27;20047;-76
2022/10/30 05:07:22;;;;;;;0.28;0.28;;;;;;;10.96;100.00;102024.28;10624857;27;20066;-75
2022/10/30 05:12:24;;;;;;;0.38;0.30;;;;;;;11.03;100.00;102021.13;10606538;27;20084;-76
2022/10/30 05:17:27;;;;;;;0.63;0.20;;;;;;;11.16;100.00;102019.06;10606261;27;20155;-76
2022/10/30 05:22:34;;;;;;;0.52;0.22;;;;;;;11.10;100.00;102019.66;10624412;27;20490;-76
2022/10/30 05:28:01;;;;;;;0.70;0.60;;;;;;;11.07;100.00;102012.69;10606427;28;20163;-75
2022/10/30 05:33:09;;;;;;;0.25;0.25;;;;;;;10.93;100.00;102014.72;10606535;28;20051;-77
2022/10/30 05:38:12;;;;;;;0.17;0.17;;;;;;;10.66;100.00;101998.94;10606998;28;20050;-75
2022/10/30 05:43:14;;;;;;;1.10;0.65;;;;;;;10.83;100.00;102047.78;10605596;28;20146;-75
2022/10/30 05:48:16;;;;;;;0.47;0.20;;;;;;;10.55;100.00;102043.97;10605913;28;20484;-76
2022/10/30 05:53:19;;;;;;;3.20;1.65;;;;;;;10.57;100.00;102060.38;10605911;28;20130;-76
2022/10/30 05:58:21;;;;;;;1.02;0.90;;;;;;;10.54;100.00;102060.22;10605408;28;20049;-76
2022/10/30 06:03:23;;;;;;;1.80;0.98;;;;;;;10.37;100.00;102070.69;10610726;27;20043;-75
2022/10/30 06:08:42;;;;;;;0.95;0.47;;;;;;;10.45;100.00;102077.06;10631956;27;20027;-76
2022/10/30 06:14:08;;;;;;;0.77;0.25;;;;;;;10.54;100.00;102078.28;10613955;27;20401;-76
2022/10/30 06:19:24;;;;;;;0.80;0.60;;;;;;;10.59;100.00;102082.81;10613106;27;20118;-75
2022/10/30 06:25:08;;;;;;;0.77;0.52;;;;;;;10.66;100.00;102089.16;10631229;27;20039;-76
2022/10/30 06:30:25;;;;;;;0.70;0.70;;;;;;;10.68;100.00;102086.63;10612861;27;20039;-76
2022/10/30 06:35:27;;;;;;;1.40;0.47;;;;;;;10.28;100.00;102083.09;10612386;27;20051;-76
2022/10/30 06:40:29;;;;;;;0.73;0.43;;;;;;;10.39;100.00;102084.50;10595352;27;20497;-76
2022/10/30 06:45:49;;;;;;;1.45;0.57;;;;;;;10.58;100.00;102087.91;10631616;27;20047;-76
2022/10/30 06:50:59;;;;;;;4.70;0.43;;;;;;;10.65;100.00;102096.81;10612120;27;20092;-76
2022/10/30 06:56:03;;;;;;;1.60;0.85;;;;;;;10.55;100.00;102093.81;10612088;27;20452;-76
2022/10/30 07:01:38;;;;;;;7.03;2.97;;;;;;;10.69;100.00;102097.00;10630041;27;20057;-76
2022/10/30 07:06:51;;;;;;;1.08;0.52;;;;;;;10.72;100.00;102109.16;10611071;27;20062;-76
2022/10/30 07:12:10;;;;;;;0.10;0.10;;;;;;;10.64;100.00;102098.50;10610711;27;20065;-76
2022/10/30 07:17:34;;;;;;;0.65;0.30;;;;;;;10.68;100.00;102084.94;10540829;28;20056;-75
2022/10/30 07:22:43;;;;;;;1.25;0.68;;;;;;;10.83;100.00;102081.28;10513378;28;20079;-76
2022/10/30 07:28:03;;;;;;;0.43;0.20;;;;;;;10.92;100.00;102089.41;10522956;28;20037;-76
2022/10/30 07:33:30;;;;;;;1.08;0.57;;;;;;;11.13;100.00;102088.59;10522955;28;20040;-76
2022/10/30 07:38:49;;;;;;;3.08;1.42;;;;;;;11.40;100.00;102075.94;10539525;28;20048;-75
2022/10/30 07:44:11;;;;;;;2.38;0.60;;;;;;;11.84;100.00;102071.69;10522191;28;20036;-75
2022/10/30 07:49:31;;;;;;;0.25;0.20;;;;;;;12.65;100.00;102059.25;10610308;27;20078;-76
2022/10/30 07:54:51;;;;;;;0.25;0.20;;;;;;;13.75;100.00;102029.25;10609431;27;20054;-75
2022/10/30 08:00:13;;;;;;;0.85;0.45;;;;;;;14.41;100.00;101971.56;10621728;27;20044;-75
2022/10/30 08:05:25;;;;;;;3.47;1.50;;;;;;;14.41;100.00;101908.44;10566882;28;20052;-75
2022/10/30 08:10:57;;;;;;;0.85;0.60;;;;;;;14.56;100.00;101882.91;10565979;28;20035;-75
2022/10/30 08:15:58;;;;;;;1.65;1.23;;;;;;;14.50;100.00;101872.38;10565974;28;20052;-76
2022/10/30 08:21:00;;;;;;;0.73;0.50;;;;;;;14.59;100.00;101851.03;10565586;28;20044;-76
2022/10/30 08:26:01;;;;;;;1.20;0.70;;;;;;;14.55;100.00;101846.59;10565294;28;20134;-76
2022/10/30 08:31:06;;;;;;;1.70;1.30;;;;;;;15.21;100.00;101824.78;10565361;28;20074;-76
2022/10/30 08:36:26;;;;;;;0.70;0.47;;;;;;;15.33;100.00;101807.72;10568812;28;20093;-75
2022/10/30 08:41:45;;;;;;;2.22;1.42;;;;;;;15.53;100.00;101797.72;10584497;27;20024;-75
2022/10/30 08:46:47;;;;;;;1.60;1.33;;;;;;;15.80;100.00;101778.31;10584555;28;20036;-76
2022/10/30 08:51:49;;;;;;;2.15;1.55;;;;;;;15.78;100.00;101756.66;10581509;28;20054;-75
2022/10/30 08:57:08;;;;;;;0.88;0.52;;;;;;;15.75;100.00;101766.97;10581503;28;20050;-77
2022/10/30 09:02:10;;;;;;;1.27;0.93;;;;;;;15.88;100.00;101778.50;10582339;28;20044;-75
2022/10/30 09:07:30;;;;;;;2.55;2.10;;;;;;;16.14;100.00;101769.41;10583095;28;20052;-76
2022/10/30 09:13:26;;;;;;;1.15;1.00;;;;;;;16.30;100.00;101743.66;10577218;28;20052;-76
2022/10/30 09:18:29;;;;;;;2.17;1.58;;;;;;;16.39;100.00;101720.41;10581072;28;20130;-76
2022/10/30 09:23:31;;;;;;;1.40;0.98;;;;;;;16.53;100.00;101718.00;10581025;28;20096;-76
2022/10/30 09:29:11;;;;;;;2.77;1.10;;;;;;;16.10;100.00;101692.25;10581853;28;20069;-76
2022/10/30 09:34:25;;;;;;;4.07;1.55;;;;;;;16.24;100.00;101704.56;10582579;28;20504;-76
2022/10/30 09:39:35;;;;;;;0.70;0.65;;;;;;;16.39;100.00;101711.72;10588327;28;20042;-76
2022/10/30 09:44:53;;;;;;;0.40;0.40;;;;;;;16.54;100.00;101719.75;10589189;28;20490;-76
2022/10/30 09:50:28;;;;;;;2.03;1.23;;;;;;;17.16;100.00;101709.31;10589039;28;20071;-76
2022/10/30 09:55:41;;;;;;;1.05;0.52;;;;;;;17.23;100.00;101695.50;10572913;28;20102;-76
2022/10/30 10:01:00;;;;;;;1.52;0.68;;;;;;;17.24;100.00;101694.59;10590313;28;20043;-76
2022/10/30 10:06:16;;;;;;;2.55;1.13;;;;;;;17.73;100.00;101708.16;10593045;28;20081;-76
2022/10/30 10:11:41;;;;;;;1.48;1.00;;;;;;;17.58;100.00;101695.84;10625977;28;20069;-76
2022/10/30 10:17:04;;;;;;;0.57;0.52;;;;;;;18.48;100.00;101699.16;10631588;27;20129;-76
2022/10/30 10:22:31;;;;;;;1.00;0.50;;;;;;;19.34;100.00;101687.34;10622242;27;20189;-77
2022/10/30 10:27:53;;;;;;;1.55;1.13;;;;;;;19.31;100.00;101677.75;10623237;27;20043;-76
2022/10/30 10:33:10;;;;;;;2.45;0.77;;;;;;;18.99;100.00;101670.72;10612831;27;20482;-76
2022/10/30 10:38:40;;;;;;;1.20;0.63;;;;;;;19.80;100.00;101673.44;10612913;27;20039;-76
2022/10/30 10:44:24;;;;;;;1.45;0.47;;;;;;;20.29;100.00;101669.91;10631071;27;20588;-76
2022/10/30 10:49:54;;;;;;;0.47;0.43;;;;;;;19.87;100.00;101679.56;10611672;27;20094;-76
2022/10/30 10:55:03;;;;;;;0.80;0.33;;;;;;;20.41;100.00;101679.47;10630860;27;20067;-76
2022/10/30 11:00:12;;;;;;;1.98;1.17;;;;;;;20.36;100.00;101683.88;10611735;27;20078;-76
2022/10/30 11:05:17;;;;;;;0.73;0.52;;;;;;;20.76;100.00;101670.66;10629358;27;20439;-76
2022/10/30 11:10:19;;;;;;;1.55;1.15;;;;;;;21.16;100.00;101673.09;10629747;27;20473;-75
2022/10/30 11:15:49;;;;;;;0.65;0.50;;;;;;;21.00;100.00;101674.03;10610911;27;20041;-77
2022/10/30 11:21:10;;;;;;;0.20;0.20;;;;;;;19.80;100.00;101678.66;10613755;27;20039;-77
2022/10/30 11:26:21;;;;;;;0.70;0.50;;;;;;;21.45;100.00;101660.66;10610731;27;20049;-78
2022/10/30 11:31:36;;;;;;;0.68;0.45;;;;;;;22.06;100.00;101647.91;10610368;27;20470;-78
2022/10/30 11:36:55;;;;;;;2.78;1.40;;;;;;;21.34;100.00;101647.63;10628506;27;20039;-77
2022/10/30 11:42:26;;;;;;;0.47;0.47;;;;;;;21.14;100.00;101632.91;10628312;27;20070;-77
2022/10/30 11:47:34;;;;;;;0.68;0.50;;;;;;;21.68;100.00;101626.44;10597403;27;20061;-76
2022/10/30 11:52:40;;;;;;;0.27;0.27;;;;;;;21.84;100.00;101627.16;10628999;27;20481;-76
2022/10/30 11:57:59;;;;;;;0.80;0.63;;;;;;;21.84;100.00;101625.41;10627492;27;20272;-75
2022/10/30 12:03:02;;;;;;;2.83;1.35;;;;;;;20.48;100.00;101639.34;10638520;27;20038;-77
2022/10/30 12:08:07;;;;;;;3.03;0.63;;;;;;;21.26;100.00;101636.34;10651550;27;20050;-75
2022/10/30 12:13:17;;;;;;;0.77;0.60;;;;;;;21.11;100.00;101622.44;10669953;27;20047;-76
2022/10/30 12:18:24;;;;;;;1.83;0.98;;;;;;;20.78;100.00;101619.16;10631989;27;20039;-76
2022/10/30 12:23:27;;;;;;;1.20;0.68;;;;;;;21.19;100.00;101619.78;10608922;27;20406;-76
2022/10/30 12:28:32;;;;;;;1.02;0.80;;;;;;;20.65;100.00;101623.53;10626343;27;20088;-76
2022/10/30 12:33:53;;;;;;;0.90;0.45;;;;;;;21.82;100.00;101614.06;10626263;27;20103;-75
2022/10/30 12:39:01;;;;;;;3.70;1.75;;;;;;;21.78;100.00;101609.69;10626217;27;20123;-76
2022/10/30 12:44:06;;;;;;;3.10;1.25;;;;;;;20.64;100.00;101623.56;10590671;27;20137;-75
2022/10/30 12:49:38;;;;;;;1.50;1.05;;;;;;;20.52;100.00;101614.00;10625253;27;20379;-76
2022/10/30 12:54:40;;;;;;;2.38;1.02;;;;;;;20.66;100.00;101612.19;10607655;27;20052;-76
2022/10/30 13:00:15;;;;;;;1.58;0.60;;;;;;;20.95;100.00;101607.72;10607794;27;20070;-75
2022/10/30 13:05:40;;;;;;;0.20;0.20;;;;;;;20.29;100.00;101607.97;10602869;27;20047;-75
2022/10/30 13:10:47;;;;;;;2.72;1.98;;;;;;;20.31;100.00;101607.09;10623783;27;20074;-75
2022/10/30 13:15:54;;;;;;;0.63;0.63;;;;;;;20.45;100.00;101611.44;10624865;27;20054;-75
2022/10/30 13:21:02;;;;;;;0.50;0.22;;;;;;;20.16;100.00;101613.28;10624669;27;20126;-77
2022/10/30 13:26:20;;;;;;;0.60;0.60;;;;;;;20.58;100.00;101613.97;10606628;28;20051;-75
2022/10/30 13:31:36;;;;;;;0.95;0.52;;;;;;;19.94;100.00;101614.19;10606604;28;20107;-75
2022/10/30 13:36:47;;;;;;;2.08;0.77;;;;;;;19.45;100.00;101608.97;10606888;28;20101;-75
2022/10/30 13:42:15;;;;;;;2.15;1.02;;;;;;;19.27;100.00;101613.31;10624264;28;20079;-76
2022/10/30 13:47:39;;;;;;;1.52;1.13;;;;;;;19.41;100.00;101599.38;10607152;28;20533;-76
2022/10/30 13:52:46;;;;;;;1.50;1.20;;;;;;;20.16;100.00;101590.59;10580289;28;20052;-75
2022/10/30 13:58:10;;;;;;;2.25;0.50;;;;;;;20.25;100.00;101584.47;10563018;28;20048;-76
2022/10/30 14:03:36;;;;;;;0.60;0.47;;;;;;;20.13;100.00;101577.53;10579928;28;20142;-75
2022/10/30 14:09:11;;;;;;;2.30;1.13;;;;;;;20.43;100.00;101565.22;10579814;28;20143;-76
2022/10/30 14:14:31;;;;;;;0.40;0.30;;;;;;;20.38;100.00;101564.34;10539339;28;20035;-75
2022/10/30 14:20:01;;;;;;;0.32;0.32;;;;;;;20.14;100.00;101558.34;10571219;28;20036;-75
2022/10/30 14:25:20;;;;;;;0.52;0.45;;;;;;;20.18;100.00;101557.44;10584517;28;20070;-75
2022/10/30 14:30:21;;;;;;;0.82;0.52;;;;;;;20.13;100.00;101565.31;10587371;28;20395;-75
2022/10/30 14:35:31;;;;;;;2.03;1.23;;;;;;;19.40;100.00;101577.59;10587240;28;20059;-75
2022/10/30 14:40:55;;;;;;;0.20;0.20;;;;;;;19.45;100.00;101582.84;10569764;28;20149;-76
2022/10/30 14:46:09;;;;;;;0.47;0.30;;;;;;;19.09;100.00;101592.41;10586775;28;20096;-75
2022/10/30 14:51:39;;;;;;;3.50;1.15;;;;;;;18.84;100.00;101598.38;10587750;28;20039;-75
2022/10/30 14:56:44;;;;;;;;;;;;;;;18.86;100.00;101611.47;10586963;28;20096;-75
2022/10/30 15:02:36;;;;;;;2.58;1.60;;;;;;;18.66;100.00;101624.44;10586920;28;19926;-76
2022/10/30 15:07:52;;;;;;;0.95;0.63;;;;;;;18.41;100.00;101620.84;10586035;28;20035;-75
2022/10/30 15:13:16;;;;;;;0.52;0.30;;;;;;;18.18;100.00;101632.03;10585887;28;20084;-75
2022/10/30 15:18:19;;;;;;;1.45;0.40;;;;;;;18.06;100.00;101633.69;10568498;28;20048;-76
2022/10/30 15:23:26;;;;;;;0.30;0.10;;;;;;;17.78;100.00;101640.44;10586545;28;20130;-75
2022/10/30 15:28:31;;;;;;;1.08;0.38;;;;;;;17.61;100.00;101655.91;10580319;27;20088;-75
2022/10/30 15:33:36;;;;;;;0.40;0.40;;;;;;;17.43;100.00;101657.50;10609503;27;20137;-75
2022/10/30 15:39:12;;;;;;;0.98;0.50;;;;;;;17.44;100.00;101651.44;10610026;27;20029;-75
2022/10/30 15:44:24;;;;;;;1.00;0.90;;;;;;;17.41;100.00;101659.22;10609882;27;20414;-75
2022/10/30 15:49:55;;;;;;;1.25;0.22;;;;;;;17.39;100.00;101663.53;10629178;27;20511;-75
2022/10/30 15:55:12;;;;;;;3.40;1.75;;;;;;;16.89;100.00;101658.63;10627919;27;20039;-75
2022/10/30 16:00:26;;;;;;;2.38;0.43;;;;;;;17.03;100.00;101696.13;10609132;27;20078;-75
2022/10/30 16:05:28;;;;;;;7.38;2.95;;;;;;;17.07;100.00;101695.31;10627480;27;20116;-74
2022/10/30 16:10:34;;;;;;;0.95;0.52;;;;;;;16.28;100.00;101685.56;10609295;27;20125;-76
2022/10/30 16:15:38;;;;;;;2.92;0.57;;;;;;;16.68;100.00;101706.94;10591667;27;20138;-75
2022/10/30 16:21:05;;;;;;;0.98;0.70;;;;;;;16.61;100.00;101705.09;10626842;27;20493;-75
2022/10/30 16:26:24;;;;;;;1.02;0.52;;;;;;;16.25;100.00;101730.59;10626450;27;20096;-75
2022/10/30 16:31:48;;;;;;;0.55;0.35;;;;;;;16.18;100.00;101740.03;10610957;27;20074;-75
2022/10/30 16:36:50;;;;;;;2.70;0.77;;;;;;;15.87;100.00;101829.56;10607474;27;20051;-75
2022/10/30 16:41:56;;;;;;;2.05;0.70;;;;;;;15.92;100.00;101847.84;10608182;27;20031;-76
2022/10/30 16:47:05;;;;;;;1.63;0.73;;;;;;;15.90;100.00;101855.63;10581770;28;20047;-75
2022/10/30 16:52:36;;;;;;;1.23;0.82;;;;;;;15.71;100.00;101875.16;10581893;28;20115;-76
2022/10/30 16:57:42;;;;;;;1.17;0.77;;;;;;;15.89;100.00;101890.25;10582959;28;20483;-76
2022/10/30 17:02:47;;;;;;;0.55;0.47;;;;;;;15.51;100.00;101888.59;10593065;27;20027;-76
2022/10/30 17:07:56;;;;;;;0.50;0.40;;;;;;;15.14;100.00;101916.34;10625229;27;20056;-75
2022/10/30 17:13:31;;;;;;;1.67;0.88;;;;;;;14.96;100.00;101939.25;10608218;27;20043;-76
2022/10/30 17:18:33;;;;;;;1.70;0.80;;;;;;;15.66;100.00;101960.78;10606403;27;20111;-76
2022/10/30 17:23:35;;;;;;;3.65;1.33;;;;;;;15.91;100.00;101930.16;10624810;27;20047;-76
2022/10/30 17:28:37;;;;;;;0.77;0.73;;;;;;;16.05;100.00;101906.16;10624765;27;20046;-76
2022/10/30 17:33:39;;;;;;;2.10;0.95;;;;;;;16.07;100.00;101887.13;10624224;28;20043;-76
2022/10/30 17:38:40;;;;;;;0.40;0.40;;;;;;;15.97;100.00;101888.69;10625004;27;20446;-76
2022/10/30 17:43:51;;;;;;;0.85;0.45;;;;;;;15.98;100.00;101897.34;10624242;27;20540;-76
2022/10/30 17:48:52;;;;;;;1.15;0.60;;;;;;;15.89;100.00;101905.00;10623629;28;20059;-77
2022/10/30 17:53:54;;;;;;;4.85;0.90;;;;;;;15.84;100.00;101916.16;10623022;28;20472;-75
2022/10/30 17:58:55;;;;;;;0.40;0.40;;;;;;;15.81;100.00;101935.97;10609637;27;20494;-76
2022/10/30 18:03:57;;;;;;;2.20;0.93;;;;;;;15.97;100.00;101945.00;10632422;27;20516;-75
2022/10/30 18:08:59;;;;;;;1.35;0.70;;;;;;;15.93;100.00;101948.38;10614434;27;20107;-75
2022/10/30 18:14:00;;;;;;;1.02;0.45;;;;;;;15.84;100.00;101964.66;10613778;27;20067;-76
2022/10/30 18:19:02;;;;;;;1.13;0.95;;;;;;;15.88;100.00;101973.38;10631758;27;20069;-76
2022/10/30 18:24:11;;;;;;;0.88;0.50;;;;;;;15.77;100.00;101991.31;10632793;27;20445;-75
2022/10/30 18:29:13;;;;;;;0.90;0.63;;;;;;;15.84;100.00;101991.50;10613550;27;20439;-75
2022/10/30 18:34:32;;;;;;;0.85;0.50;;;;;;;15.68;100.00;101990.28;10631056;27;20038;-75
2022/10/30 18:39:36;;;;;;;1.17;1.08;;;;;;;15.77;100.00;101994.78;10630732;27;20035;-76
2022/10/30 18:44:42;;;;;;;0.40;0.40;;;;;;;15.69;100.00;102006.72;10630923;27;20126;-75
2022/10/30 18:50:01;;;;;;;3.30;1.15;;;;;;;15.62;100.00;102030.81;10630446;27;20042;-76
2022/10/30 18:55:15;;;;;;;0.70;0.63;;;;;;;15.43;100.00;102058.94;10612188;27;20081;-75
2022/10/30 19:07:34;;;;;;;2.75;1.52;;;;;;;15.33;100.00;102114.09;10630663;27;20027;-76
2022/10/30 19:13:00;;;;;;;3.75;0.95;;;;;;;15.36;100.00;102133.22;10596540;27;20042;-76
2022/10/30 19:18:13;;;;;;;2.55;1.17;;;;;;;15.26;100.00;102145.91;10629096;27;20047;-76
2022/10/30 19:23:18;;;;;;;1.60;1.25;;;;;;;15.22;100.00;102158.84;10610878;27;20043;-76
2022/10/30 19:28:38;;;;;;;5.63;1.25;;;;;;;15.13;100.00;102165.47;10628001;27;20031;-76
2022/10/30 19:33:40;;;;;;;0.57;0.43;;;;;;;14.98;100.00;102171.13;10627494;27;20050;-76
2022/10/30 19:38:42;;;;;;;2.88;1.30;;;;;;;14.97;100.00;102182.34;10628578;27;20092;-76
2022/10/30 19:43:43;;;;;;;1.40;0.98;;;;;;;14.94;100.00;102179.66;10628397;27;20122;-76
2022/10/30 19:48:44;;;;;;;0.80;0.52;;;;;;;14.89;100.00;102197.72;10628146;27;20110;-76
2022/10/30 19:54:01;;;;;;;4.40;0.93;;;;;;;14.87;100.00;102205.44;10612967;27;20035;-75
2022/10/30 19:59:08;;;;;;;0.40;0.40;;;;;;;14.80;100.00;102208.69;10628220;27;20043;-75
2022/10/30 20:04:10;;;;;;;0.75;0.52;;;;;;;14.82;100.00;102207.03;10627598;27;20118;-76
2022/10/30 20:09:12;;;;;;;0.55;0.43;;;;;;;14.72;100.00;102205.88;10608769;27;20047;-77
2022/10/30 20:14:31;;;;;;;0.52;0.50;;;;;;;14.68;100.00;102216.09;10608541;27;20121;-75
2022/10/30 20:19:33;;;;;;;0.45;0.30;;;;;;;14.53;100.00;102251.09;10607951;27;20047;-76
2022/10/30 20:24:35;;;;;;;6.70;0.95;;;;;;;14.49;100.00;102248.34;10626528;27;20047;-76
2022/10/30 20:29:54;;;;;;;0.50;0.50;;;;;;;14.56;100.00;102245.97;10611658;27;20074;-75
2022/10/30 20:34:57;;;;;;;0.70;0.43;;;;;;;14.36;100.00;102242.78;10626353;27;20050;-76
2022/10/30 20:39:59;;;;;;;1.55;0.90;;;;;;;14.45;100.00;102268.13;10607852;27;20417;-76
2022/10/30 20:45:00;;;;;;;0.98;0.50;;;;;;;14.38;100.00;102269.63;10607709;27;20100;-76
2022/10/30 20:50:07;;;;;;;2.20;1.23;;;;;;;14.17;100.00;102266.34;10597378;27;20130;-76
2022/10/30 20:55:12;;;;;;;0.60;0.60;;;;;;;13.92;100.00;102291.44;10564917;28;20039;-76
2022/10/30 21:00:17;;;;;;;0.70;0.70;;;;;;;13.89;100.00;102299.97;10615142;27;20054;-75
2022/10/30 21:05:18;;;;;;;0.95;0.57;;;;;;;13.87;100.00;102314.59;10625010;27;20081;-75
2022/10/30 21:10:41;;;;;;;0.65;0.55;;;;;;;13.79;100.00;102321.22;10570611;28;20047;-76
2022/10/30 21:15:45;;;;;;;0.20;0.20;;;;;;;13.66;100.00;102324.19;10564295;28;20116;-75
2022/10/30 21:20:47;;;;;;;0.35;0.35;;;;;;;13.58;100.00;102321.31;10582098;28;20044;-76
2022/10/30 21:26:08;;;;;;;0.52;0.32;;;;;;;13.52;100.00;102332.31;10549710;28;20115;-77
2022/10/30 21:31:12;;;;;;;1.88;0.98;;;;;;;13.54;100.00;102348.81;10563228;28;20044;-76
2022/10/30 21:36:21;;;;;;;1.50;1.02;;;;;;;13.67;100.00;102365.69;10581083;28;20438;-76
2022/10/30 21:41:24;;;;;;;1.33;0.85;;;;;;;13.84;100.00;102361.09;10624279;28;20085;-75
2022/10/30 21:46:30;;;;;;;2.67;1.20;;;;;;;13.68;100.00;102362.28;10605904;28;20047;-75
2022/10/30 21:51:49;;;;;;;2.15;0.82;;;;;;;13.60;100.00;102364.56;10623962;28;20404;-76
2022/10/30 21:56:51;;;;;;;1.50;1.02;;;;;;;13.55;100.00;102368.69;10624798;28;20073;-75
2022/10/30 22:01:52;;;;;;;1.27;0.93;;;;;;;13.53;100.00;102370.34;10623808;28;20039;-75
2022/10/30 22:06:54;;;;;;;0.57;0.47;;;;;;;13.53;100.00;102365.16;10605579;28;20398;-76
2022/10/30 22:12:13;;;;;;;1.33;1.15;;;;;;;13.49;100.00;102368.47;10608139;28;20049;-76
2022/10/30 22:17:14;;;;;;;0.70;0.63;;;;;;;13.37;100.00;102362.78;10605174;28;20058;-76
2022/10/30 22:22:16;;;;;;;4.78;0.80;;;;;;;13.22;100.00;102353.63;10604905;28;20071;-75
2022/10/30 22:27:17;;;;;;;0.75;0.60;;;;;;;13.07;100.00;102378.94;10605025;28;20551;-76
2022/10/30 22:32:19;;;;;;;0.32;0.32;;;;;;;12.98;100.00;102395.84;10623183;28;20126;-75
2022/10/30 22:37:21;;;;;;;2.50;0.70;;;;;;;12.94;100.00;102393.06;10623291;28;20085;-77
2022/10/30 22:42:22;;;;;;;1.02;0.63;;;;;;;13.07;100.00;102416.03;10623092;27;20047;-76
2022/10/30 22:47:24;;;;;;;0.43;0.43;;;;;;;13.09;100.00;102418.66;10611778;27;20479;-76
2022/10/30 22:52:43;;;;;;;1.17;0.63;;;;;;;13.03;100.00;102419.28;10614681;27;20045;-76
2022/10/30 22:57:44;;;;;;;2.05;1.20;;;;;;;12.74;100.00;102395.72;10611903;27;20043;-76
2022/10/30 23:02:46;;;;;;;0.70;0.63;;;;;;;12.49;100.00;102380.91;10611802;27;20077;-76
2022/10/30 23:07:49;;;;;;;2.72;0.80;;;;;;;12.64;100.00;102388.41;10611341;27;20047;-76
2022/10/30 23:12:51;;;;;;;0.85;0.60;;;;;;;12.69;100.00;102403.31;10610931;27;20504;-76
2022/10/30 23:17:53;;;;;;;0.32;0.32;;;;;;;12.57;100.00;102410.53;10610927;27;20042;-76
2022/10/30 23:22:54;;;;;;;5.20;0.90;;;;;;;12.42;100.00;102438.31;10581569;27;20039;-76
2022/10/30 23:27:56;;;;;;;3.20;1.17;;;;;;;12.34;100.00;102446.63;10628819;27;20074;-76
2022/10/30 23:32:58;;;;;;;0.93;0.47;;;;;;;12.24;100.00;102453.91;10610248;27;20073;-76
2022/10/30 23:38:00;;;;;;;3.10;1.25;;;;;;;12.02;100.00;102453.88;10593684;27;20482;-76
2022/10/30 23:43:01;;;;;;;1.55;0.55;;;;;;;12.22;100.00;102451.28;10629001;27;20035;-76